Snow/Ice From: 23-10-2018 22:46 Until: 24-10-2018 08:00 warning for: Snow/Ice Level: Yellow info button
suomi:
Liikennesää: Ajokeli on huono tienpintojen jäätymisen vuoksi.

svenska:
Trafikvädret: Väglaget är dåligt p.g.a. tillfrysning av vägytor.

english:
Traffic weather warning: Bad road conditions are expected because of ice-covered roads. 


Thunder radar more information blitzortung!


Löydät sääaseman tiedot myös:

European Weather Network

Finland Weather Exchange

Weather Underground

AWEKAS



Weather Underground säähistoriasivu

Päivittäin yhteenveto Lokakuu 27, 2017 Yksiköt:  Englantilaiset    Metriset   Molemmat
« Edellinen Päivä
Seuraava Päivä »
Päivittäin Viikoittain Kuukausittain Vuosittain Mukautettu
  Korkea: Matala: Keskiarvo:
Lämpötila: TemperatureF °F 23.2 °F 27.2 °F
Kastepiste: DewpointF °F 21.9 °F 26.3 °F
Kosteus: Humidity % 94 % 95 %
Tuulen nopeus: WindSpeedMPH mph 0.0 mph 0.3 mph
Tuulenpuuska: WindSpeedGustMPH mph - -
Tuuli:- - SSW
Ilmanpaine: PressureIn in 29.48 in -
Sade: 0.00 in    
Historical Graphs
 
 
Taulukkotiedot Lokakuu 27, 2017
Aika Lämpötila Kastepiste Ilmanpaine Tuuli Tuulen nopeus Tuulenpuuska Kosteus Sademäärä (tunneittain)
TemperatureF °F DewpointF °F PressureIn in Calm     Humidity % HourlyPrecipIn in
00:00 27.9 °F 26.8 °F 29.76 in Calm     96 % 0.00 in
00:15 27.7 °F 26.8 °F 29.76 in Calm     96 % 0.00 in
00:30 27.5 °F 26.4 °F 29.77 in Calm     96 % 0.00 in
00:45 27.1 °F 26.2 °F 29.77 in Calm     96 % 0.00 in
01:00 27.0 °F 25.9 °F 29.77 in Calm     96 % 0.00 in
01:15 26.6 °F 25.7 °F 29.77 in Calm     96 % 0.00 in
01:30 26.4 °F 25.5 °F 29.77 in Calm     96 % 0.00 in
01:45 26.4 °F 25.3 °F 29.78 in Calm     96 % 0.00 in
02:00 26.4 °F 25.5 °F 29.77 in Calm     96 % 0.00 in
02:15 26.4 °F 25.3 °F 29.78 in Calm     96 % 0.00 in
02:30 26.4 °F 25.3 °F 29.78 in Calm     96 % 0.00 in
02:45 26.4 °F 25.5 °F 29.78 in Calm     96 % 0.00 in
03:00 26.6 °F 25.9 °F 29.78 in Calm     97 % 0.00 in
03:15 26.8 °F 26.1 °F 29.78 in Calm     97 % 0.00 in
03:30 27.0 °F 25.9 °F 29.78 in Calm     96 % 0.00 in
03:45 27.0 °F 25.9 °F 29.78 in Calm     96 % 0.00 in
04:00 27.0 °F 26.2 °F 29.77 in Calm     97 % 0.00 in
04:15 27.1 °F 26.4 °F 29.78 in Calm     97 % 0.00 in
04:30 27.1 °F 26.4 °F 29.77 in Calm     97 % 0.00 in
04:45 27.3 °F 26.6 °F 29.78 in Calm     97 % 0.00 in
05:00 27.3 °F 26.6 °F 29.78 in Calm     97 % 0.00 in
05:15 27.7 °F 26.8 °F 29.78 in Calm     97 % 0.00 in
05:30 27.7 °F 26.8 °F 29.78 in Calm     97 % 0.00 in
05:45 27.7 °F 27.0 °F 29.79 in Calm     97 % 0.00 in
06:00 27.7 °F 27.0 °F 29.79 in Calm     97 % 0.00 in
06:15 27.7 °F 27.0 °F 29.79 in Calm     97 % 0.00 in
06:30 27.7 °F 27.0 °F 29.78 in Calm     97 % 0.00 in
06:45 27.7 °F 27.0 °F 29.78 in Calm     97 % 0.00 in
07:00 27.7 °F 26.8 °F 29.78 in Calm     97 % 0.00 in
07:15 27.3 °F 26.4 °F 29.78 in Calm     96 % 0.00 in
07:30 27.1 °F 26.2 °F 29.78 in Calm     96 % 0.00 in
07:45 27.1 °F 26.1 °F 29.78 in Calm     96 % 0.00 in
08:00 27.0 °F 25.9 °F 29.78 in Calm     96 % 0.00 in
08:15 26.6 °F 25.7 °F 29.78 in Calm     96 % 0.00 in
08:30 26.1 °F 25.0 °F 29.78 in Calm     96 % 0.00 in
08:45 25.3 °F 24.1 °F 29.78 in Calm     95 % 0.00 in
09:00 24.3 °F 23.0 °F 29.78 in Calm     95 % 0.00 in
09:15 24.1 °F 22.8 °F 29.78 in Calm     95 % 0.00 in
09:30 23.9 °F 22.6 °F 29.78 in Calm     95 % 0.00 in
09:45 23.7 °F 22.8 °F 29.79 in Calm     96 % 0.00 in
10:00 23.4 °F 22.1 °F 29.79 in Calm     95 % 0.00 in
10:15 23.2 °F 21.9 °F 29.79 in Calm     95 % 0.00 in
10:30 23.2 °F 21.9 °F 29.79 in Calm     95 % 0.00 in
10:45 23.4 °F 22.5 °F 29.78 in Calm     96 % 0.00 in
11:00 23.4 °F 22.5 °F 29.79 in Calm     96 % 0.00 in
11:15 23.5 °F 22.6 °F 29.79 in Calm     96 % 0.00 in
11:30 23.9 °F 23.0 °F 29.78 in Calm     96 % 0.00 in
11:45 24.1 °F 23.2 °F 29.78 in Calm     96 % 0.00 in
12:00 24.4 °F 23.4 °F 29.78 in Calm     96 % 0.00 in
12:15 24.6 °F 23.5 °F 29.78 in Calm     96 % 0.00 in
12:30 25.2 °F 24.3 °F 29.78 in Calm     96 % 0.00 in
12:45 26.1 °F 25.3 °F 29.77 in Calm     97 % 0.00 in
13:00 26.8 °F 25.9 °F 29.77 in Calm     97 % 0.00 in
13:15 26.2 °F 25.0 °F 29.76 in Calm     95 % 0.00 in
13:30 25.7 °F 24.4 °F 29.76 in Calm     95 % 0.00 in
13:45 25.7 °F 24.4 °F 29.76 in Calm     95 % 0.00 in
14:00 26.2 °F 25.0 °F 29.76 in Calm     95 % 0.00 in
14:15 26.2 °F 24.8 °F 29.75 in Calm     94 % 0.00 in
14:30 25.9 °F 24.3 °F 29.75 in Calm     94 % 0.00 in
14:45 25.5 °F 24.1 °F 29.75 in Calm     94 % 0.00 in
15:00 25.5 °F 24.3 °F 29.74 in Calm     95 % 0.00 in
15:15 25.5 °F 24.3 °F 29.74 in Calm     95 % 0.00 in
15:30 25.7 °F 24.4 °F 29.74 in Calm     95 % 0.00 in
15:45 25.9 °F 25.0 °F 29.74 in Calm     96 % 0.00 in
16:00 26.2 °F 25.2 °F 29.73 in Calm     96 % 0.00 in
16:15 26.6 °F 25.7 °F 29.73 in Calm     96 % 0.00 in
16:30 27.0 °F 25.9 °F 29.72 in Calm     96 % 0.00 in
16:45 27.3 °F 26.2 °F 29.72 in Calm     96 % 0.00 in
17:00 27.7 °F 26.6 °F 29.70 in Calm     96 % 0.00 in
17:15 27.9 °F 26.8 °F 29.70 in Calm     96 % 0.00 in
17:30 28.0 °F 27.0 °F 29.69 in Calm     96 % 0.00 in
17:45 28.2 °F 27.3 °F 29.69 in Calm     96 % 0.00 in
18:00 28.6 °F 27.5 °F 29.68 in Calm     96 % 0.00 in
18:15 28.8 °F 27.9 °F 29.67 in Calm     96 % 0.00 in
18:30 28.9 °F 28.0 °F 29.67 in Calm     96 % 0.00 in
18:45 29.3 °F 28.2 °F 29.66 in Calm     96 % 0.00 in
19:00 29.5 °F 28.4 °F 29.65 in Calm     96 % 0.00 in
19:15 29.7 °F 28.6 °F 29.65 in Calm     96 % 0.00 in
19:30 29.8 °F 28.9 °F 29.64 in Calm     96 % 0.00 in
19:45 30.0 °F 29.1 °F 29.62 in Calm     96 % 0.00 in
20:00 30.6 °F 29.8 °F 29.62 in Calm     97 % 0.00 in
20:15 30.9 °F 30.2 °F 29.61 in Calm     97 % 0.00 in
20:30 31.3 °F 30.4 °F 29.60 in Calm     97 % 0.00 in
20:45 31.5 °F 30.7 °F 29.60 in Calm     97 % 0.00 in
21:00 31.8 °F 31.1 °F 29.58 in Calm     97 % 0.00 in
21:15 32.0 °F 31.3 °F 29.57 in Calm     97 % 0.00 in
21:30 32.4 °F 31.5 °F 29.57 in SSW 3.0 mph 9.0 mph 97 % 0.00 in
21:45 32.5 °F 31.8 °F 29.56 in SSW 3.0 mph 11.0 mph 97 % 0.00 in
22:00 32.5 °F 31.8 °F 29.55 in SSW 3.0 mph 9.0 mph 97 % 0.00 in
22:15 32.7 °F 32.0 °F 29.53 in SSW 4.0 mph 8.0 mph 97 % 0.00 in
22:30 32.9 °F 32.2 °F 29.52 in SSW 3.0 mph 10.0 mph 97 % 0.00 in
22:45 33.1 °F 32.2 °F 29.51 in South 4.0 mph 8.0 mph 97 % 0.00 in
23:00 33.1 °F 32.4 °F 29.50 in SSW 2.0 mph 9.0 mph 97 % 0.00 in
23:15 33.3 °F 32.4 °F 29.50 in SSW 4.0 mph 8.0 mph 97 % 0.00 in
23:30 33.3 °F 32.5 °F 29.49 in SSW 3.0 mph 10.0 mph 97 % 0.00 in
23:45 33.4 °F 32.7 °F 29.48 in SSW 4.0 mph 10.0 mph 97 % 0.00 in
Esan sääasema
Terveisin Weather Underground - 2.75 mb

Alkuperäinen skripti  Jim McMurry - jmcmurry@mwt.net Sovitettu myös templatelle  Wim van der Kuil - Leuven-Template.eu

Laitteet joita käytämme:

Sääasema
Davis VP2

Sääasemaohjelma
Cumulus

Sääaseman tietokone
Asus EeePC

Palveluntarjoaja
Suncomet

Davis VP2

Cumulus

Asus EeePC

Suncomet